createdAt,value
2017-06-27T00:02:51.720Z,0
2017-06-27T00:04:59.389Z,0
2017-06-27T00:07:23.932Z,0
2017-06-27T00:09:48.419Z,0
2017-06-27T00:12:12.915Z,0
2017-06-27T00:14:37.515Z,0
2017-06-27T00:19:03.734Z,0
2017-06-27T00:21:28.257Z,0
2017-06-27T00:23:52.844Z,0
2017-06-27T00:26:17.445Z,0
2017-06-27T00:28:33.544Z,0
2017-06-27T00:30:49.658Z,0
2017-06-27T00:33:05.746Z,0
2017-06-27T00:35:21.817Z,0
2017-06-27T00:37:46.407Z,0
2017-06-27T00:40:10.895Z,0
2017-06-27T00:42:36.419Z,0
2017-06-27T00:45:00.909Z,0
2017-06-27T00:47:17.040Z,0
2017-06-27T00:49:33.141Z,0
2017-06-27T00:51:57.684Z,0
2017-06-27T00:54:13.828Z,0
2017-06-27T00:56:38.391Z,0
2017-06-27T00:58:37.554Z,0
2017-06-27T01:00:53.668Z,0
2017-06-27T01:03:18.156Z,0
2017-06-27T01:05:42.650Z,0
2017-06-27T01:07:58.683Z,0
2017-06-27T01:10:23.237Z,0
2017-06-27T01:12:47.736Z,0
2017-06-27T01:15:12.332Z,0
2017-06-27T01:17:28.423Z,0
2017-06-27T01:19:53.011Z,0
2017-06-27T01:22:03.619Z,0
2017-06-27T01:24:28.172Z,0
2017-06-27T01:26:44.278Z,0
2017-06-27T01:29:08.859Z,0
2017-06-27T01:31:33.350Z,0
2017-06-27T01:33:57.836Z,0
2017-06-27T01:36:22.336Z,0
2017-06-27T01:38:46.834Z,0
2017-06-27T01:41:02.956Z,0
2017-06-27T01:43:19.004Z,0
2017-06-27T01:45:43.506Z,0
2017-06-27T01:47:51.120Z,0
2017-06-27T01:50:15.705Z,0
2017-06-27T01:52:40.292Z,0
2017-06-27T01:57:06.263Z,0
2017-06-27T01:59:30.829Z,0
2017-06-27T02:01:55.318Z,0
2017-06-27T02:04:19.809Z,0
2017-06-27T02:06:27.440Z,0
2017-06-27T02:08:51.886Z,0
2017-06-27T02:11:16.393Z,0
2017-06-27T02:13:40.888Z,0
2017-06-27T02:16:05.368Z,0
2017-06-27T02:18:29.864Z,0
2017-06-27T02:20:54.344Z,0
2017-06-27T02:23:18.837Z,0
2017-06-27T02:25:43.328Z,0
2017-06-27T02:28:07.817Z,0
2017-06-27T02:32:26.100Z,0
2017-06-27T02:34:50.574Z,0
2017-06-27T02:37:15.058Z,0
2017-06-27T02:39:39.551Z,0
2017-06-27T02:42:03.940Z,0
2017-06-27T02:44:19.933Z,0
2017-06-27T02:46:44.314Z,0
2017-06-27T02:49:08.710Z,0
2017-06-27T02:51:33.088Z,0
2017-06-27T02:53:57.595Z,0
2017-06-27T02:56:21.988Z,0
2017-06-27T02:58:46.359Z,0
2017-06-27T03:01:10.754Z,0
2017-06-27T03:03:26.748Z,0
2017-06-27T03:05:51.130Z,0
2017-06-27T03:08:15.523Z,4
2017-06-27T03:12:17.548Z,4
2017-06-27T03:14:42.009Z,4
2017-06-27T03:17:06.486Z,4
2017-06-27T03:19:17.087Z,8
2017-06-27T03:21:41.540Z,8
2017-06-27T03:24:05.935Z,8
2017-06-27T03:26:30.321Z,12
2017-06-27T03:28:46.247Z,16
2017-06-27T03:31:02.151Z,20
2017-06-27T03:33:26.482Z,24
2017-06-27T03:35:50.876Z,28
2017-06-27T03:38:15.266Z,32
2017-06-27T03:40:22.799Z,36
2017-06-27T03:42:47.246Z,36
2017-06-27T03:44:57.243Z,40
2017-06-27T03:47:21.689Z,44
2017-06-27T03:49:46.080Z,44
2017-06-27T03:54:03.481Z,56
2017-06-27T03:56:27.914Z,64
2017-06-27T03:58:37.900Z,72
2017-06-27T04:00:53.922Z,84
2017-06-27T04:03:18.346Z,96
2017-06-27T04:05:42.735Z,120
2017-06-27T04:08:07.028Z,144
2017-06-27T04:10:17.043Z,172
2017-06-27T04:12:41.465Z,204
2017-06-27T04:14:48.951Z,232
2017-06-27T04:17:13.355Z,268
2017-06-27T04:19:29.342Z,296
2017-06-27T04:21:53.728Z,320
2017-06-27T04:24:18.123Z,340
2017-06-27T04:26:42.516Z,352
2017-06-27T04:31:08.360Z,364
2017-06-27T04:33:07.449Z,368
2017-06-27T04:35:23.373Z,368
2017-06-27T04:37:47.718Z,360
2017-06-27T04:40:03.655Z,364
2017-06-27T04:42:28.002Z,384
2017-06-27T04:44:43.936Z,408
2017-06-27T04:47:08.269Z,436
2017-06-27T04:49:32.654Z,452
2017-06-27T04:51:57.047Z,476
2017-06-27T04:54:21.434Z,488
2017-06-27T04:58:38.834Z,500
2017-06-27T05:00:54.774Z,512
2017-06-27T05:05:20.655Z,464
2017-06-27T05:07:45.106Z,460
2017-06-27T05:10:09.504Z,488
2017-06-27T05:12:33.879Z,520
2017-06-27T05:14:58.279Z,564
2017-06-27T05:17:14.165Z,600
2017-06-27T05:19:38.554Z,636
2017-06-27T05:21:48.651Z,680
2017-06-27T05:24:04.603Z,744
2017-06-27T05:26:20.539Z,832
2017-06-27T05:28:44.878Z,928
2017-06-27T05:31:00.773Z,1040
2017-06-27T05:33:25.158Z,1212
2017-06-27T05:35:49.558Z,1372
2017-06-27T05:38:14.058Z,1416
2017-06-27T05:40:38.545Z,1380
2017-06-27T05:43:03.040Z,1300
2017-06-27T05:45:27.536Z,1240
2017-06-27T05:47:43.543Z,1220
2017-06-27T05:50:08.016Z,1204
2017-06-27T05:52:32.501Z,1192
2017-06-27T05:54:56.885Z,1212
2017-06-27T05:57:21.385Z,1232
2017-06-27T06:01:39.360Z,1336
2017-06-27T06:03:46.876Z,1152
2017-06-27T06:06:11.331Z,940
2017-06-27T06:08:35.821Z,848
2017-06-27T06:10:53.860Z,812
2017-06-27T06:13:09.854Z,824
2017-06-27T06:15:34.679Z,844
2017-06-27T06:19:35.218Z,1048
2017-06-27T06:21:59.576Z,1296
2017-06-27T06:24:23.963Z,1608
2017-06-27T06:26:48.372Z,1932
2017-06-27T06:29:12.857Z,2164
2017-06-27T06:31:44.096Z,2144
2017-06-27T06:34:02.096Z,1960
2017-06-27T06:36:26.538Z,1768
2017-06-27T06:40:27.243Z,1560
2017-06-27T06:42:51.692Z,1500
2017-06-27T06:45:16.170Z,1504
2017-06-27T06:47:40.573Z,1544
2017-06-27T06:50:05.033Z,1560
2017-06-27T06:52:29.433Z,1576
2017-06-27T06:54:54.947Z,1660
2017-06-27T06:57:19.453Z,2008
2017-06-27T06:59:44.977Z,2664
2017-06-27T07:02:09.452Z,3352
2017-06-27T07:04:33.979Z,3688
2017-06-27T07:08:26.180Z,4280
2017-06-27T07:12:32.252Z,3988
2017-06-27T07:16:33.048Z,3608
2017-06-27T07:22:01.657Z,3812
2017-06-27T07:26:02.515Z,4380
2017-06-27T07:30:03.351Z,4704
2017-06-27T07:34:04.220Z,5416
2017-06-27T07:38:05.164Z,6852
2017-06-27T07:40:22.482Z,9580
2017-06-27T07:42:38.855Z,8784
2017-06-27T07:44:55.302Z,7536
2017-06-27T07:47:20.303Z,6868
2017-06-27T07:49:45.310Z,6568
2017-06-27T07:52:10.339Z,6220
2017-06-27T07:54:35.329Z,5868
2017-06-27T07:56:45.999Z,5340
2017-06-27T07:59:10.996Z,5184
2017-06-27T08:01:27.474Z,5080
2017-06-27T08:03:53.514Z,4652
2017-06-27T08:06:18.535Z,4620
2017-06-27T08:08:43.513Z,4924
2017-06-27T08:11:08.532Z,5292
2017-06-27T08:13:33.531Z,5928
2017-06-27T08:15:58.539Z,7260
2017-06-27T08:18:23.552Z,11204
2017-06-27T08:20:48.683Z,8368
2017-06-27T08:23:13.806Z,14600
2017-06-27T08:25:39.027Z,14944
2017-06-27T08:31:43.030Z,13388
2017-06-27T08:34:08.695Z,8228
2017-06-27T08:36:34.432Z,7232
2017-06-27T08:38:51.633Z,6880
2017-06-27T08:41:17.336Z,5992
2017-06-27T08:43:42.935Z,5256
2017-06-27T08:46:08.439Z,4724
2017-06-27T08:48:26.461Z,4392
2017-06-27T08:50:34.860Z,4188
2017-06-27T08:52:51.769Z,4068
2017-06-27T08:55:17.188Z,3984
2017-06-27T08:57:42.596Z,3936
2017-06-27T09:00:07.900Z,3844
2017-06-27T09:02:33.214Z,3872
2017-06-27T09:04:58.494Z,3976
2017-06-27T09:07:00.753Z,4108
2017-06-27T09:09:25.991Z,4268
2017-06-27T09:11:51.151Z,4424
2017-06-27T09:14:16.394Z,4560
2017-06-27T09:16:41.613Z,4764
2017-06-27T09:19:06.834Z,4820
2017-06-27T09:21:32.129Z,4760
2017-06-27T09:23:48.836Z,4696
2017-06-27T09:26:14.074Z,4732
2017-06-27T09:28:40.391Z,4592
2017-06-27T09:31:05.700Z,4504
2017-06-27T09:33:22.394Z,4388
2017-06-27T09:35:39.110Z,4228
2017-06-27T09:38:04.423Z,4060
2017-06-27T09:40:29.633Z,3980
2017-06-27T09:42:46.329Z,3908
2017-06-27T09:45:03.023Z,3948
2017-06-27T09:47:28.234Z,3988
2017-06-27T09:49:53.350Z,3932
2017-06-27T09:52:18.548Z,3940
2017-06-27T09:54:43.678Z,4104
2017-06-27T09:57:08.786Z,4132
2017-06-27T09:59:33.992Z,3688
2017-06-27T10:01:51.651Z,3272
2017-06-27T10:04:08.340Z,3048
2017-06-27T10:06:19.127Z,3168
2017-06-27T10:08:35.763Z,3536
2017-06-27T10:12:28.713Z,4072
2017-06-27T10:14:53.875Z,4032
2017-06-27T10:17:04.586Z,3896
2017-06-27T10:19:21.223Z,3864
2017-06-27T10:21:46.275Z,3948
2017-06-27T10:24:11.347Z,3836
2017-06-27T10:26:36.442Z,3688
2017-06-27T10:29:01.554Z,3688
2017-06-27T10:31:18.180Z,4056
2017-06-27T10:33:51.889Z,4312
2017-06-27T10:36:19.065Z,4520
2017-06-27T10:38:46.150Z,4796
2017-06-27T10:41:25.890Z,5688
2017-06-27T10:43:57.928Z,5856
2017-06-27T10:46:23.167Z,6536
2017-06-27T10:48:39.935Z,7720
2017-06-27T10:51:07.237Z,7872
2017-06-27T10:53:32.545Z,6228
2017-06-27T10:58:06.683Z,5380
2017-06-27T11:00:33.092Z,5308
2017-06-27T11:02:58.403Z,5072
2017-06-27T11:05:23.799Z,4820
2017-06-27T11:07:50.120Z,4884
2017-06-27T11:10:06.928Z,4956
2017-06-27T11:12:32.263Z,4732
2017-06-27T11:14:58.553Z,4636
2017-06-27T11:17:23.835Z,4652
2017-06-27T11:19:49.110Z,4448
2017-06-27T11:22:14.396Z,4532
2017-06-27T11:24:39.728Z,4708
2017-06-27T11:27:05.003Z,4692
2017-06-27T11:29:30.341Z,4492
2017-06-27T11:31:56.611Z,4644
2017-06-27T11:34:22.991Z,4728
2017-06-27T11:36:48.283Z,4956
2017-06-27T11:39:13.582Z,5352
2017-06-27T11:41:40.933Z,5748
2017-06-27T11:44:06.219Z,5908
2017-06-27T11:46:31.482Z,5888
2017-06-27T11:48:56.858Z,5712
2017-06-27T11:52:58.527Z,5384
2017-06-27T11:55:11.305Z,5384
2017-06-27T11:57:36.075Z,5380
2017-06-27T11:59:52.767Z,5728
2017-06-27T12:02:18.036Z,5336
2017-06-27T12:04:44.303Z,5512
2017-06-27T12:07:09.555Z,5336
2017-06-27T12:11:36.980Z,5068
2017-06-27T12:14:02.285Z,4972
2017-06-27T12:16:27.525Z,4776
2017-06-27T12:18:52.808Z,4656
2017-06-27T12:21:03.643Z,4592
2017-06-27T12:23:28.914Z,4392
2017-06-27T12:25:39.137Z,4292
2017-06-27T12:28:04.381Z,3996
2017-06-27T12:30:29.649Z,3868
2017-06-27T12:32:54.887Z,3688
2017-06-27T12:35:20.172Z,3028
2017-06-27T12:37:45.443Z,3092
2017-06-27T12:40:11.695Z,3600
2017-06-27T12:42:37.952Z,3236
2017-06-27T12:44:54.669Z,3792
2017-06-27T12:47:19.949Z,3156
2017-06-27T12:49:45.236Z,3468
2017-06-27T12:52:10.532Z,3392
2017-06-27T12:54:27.336Z,3192
2017-06-27T12:56:52.596Z,3696
2017-06-27T13:01:20.043Z,3452
2017-06-27T13:03:45.319Z,3480
2017-06-27T13:05:53.568Z,4128
2017-06-27T13:08:18.811Z,3808
2017-06-27T13:10:44.027Z,3964
2017-06-27T13:13:02.793Z,3596
2017-06-27T13:15:28.081Z,3396
2017-06-27T13:17:53.362Z,3204
2017-06-27T13:20:18.581Z,3240
2017-06-27T13:22:43.819Z,3364
2017-06-27T13:25:10.059Z,3508
2017-06-27T13:27:35.332Z,3744
2017-06-27T13:30:00.581Z,3896
2017-06-27T13:32:25.825Z,4008
2017-06-27T13:34:51.065Z,4356
2017-06-27T13:37:07.870Z,4452
2017-06-27T13:39:33.121Z,4360
2017-06-27T13:41:58.458Z,4172
2017-06-27T13:48:28.191Z,3620
2017-06-27T13:50:45.067Z,3248
2017-06-27T13:53:10.447Z,3116
2017-06-27T13:55:12.768Z,2996
2017-06-27T13:57:38.134Z,2980
2017-06-27T14:00:05.429Z,2644
2017-06-27T14:02:30.686Z,2412
2017-06-27T14:04:55.989Z,2252
2017-06-27T14:07:23.224Z,2248
2017-06-27T14:09:48.475Z,2356
2017-06-27T14:12:06.205Z,2452
2017-06-27T14:14:22.904Z,2492
2017-06-27T14:16:48.097Z,2540
2017-06-27T14:19:13.483Z,2600
2017-06-27T14:21:53.477Z,2692
2017-06-27T14:24:04.274Z,2780
2017-06-27T14:26:29.554Z,2836
2017-06-27T14:28:46.237Z,2836
2017-06-27T14:31:02.921Z,2788
2017-06-27T14:33:28.196Z,2784
2017-06-27T14:35:53.427Z,2760
2017-06-27T14:38:18.607Z,2720
2017-06-27T14:40:43.962Z,2632
2017-06-27T14:43:10.465Z,2604
2017-06-27T14:45:35.725Z,2620
2017-06-27T14:47:52.493Z,2596
2017-06-27T14:50:09.147Z,2496
2017-06-27T14:52:34.346Z,2420
2017-06-27T14:54:59.688Z,2316
2017-06-27T14:57:24.997Z,2216
2017-06-27T14:59:51.319Z,2168
2017-06-27T15:02:17.051Z,2132
2017-06-27T15:04:42.339Z,2108
2017-06-27T15:07:07.545Z,2084
2017-06-27T15:09:32.695Z,2076
2017-06-27T15:11:43.445Z,2096
2017-06-27T15:14:08.620Z,2152
2017-06-27T15:16:33.848Z,2296
2017-06-27T15:18:59.041Z,2520
2017-06-27T15:23:26.478Z,2884
2017-06-27T15:25:52.680Z,2932
2017-06-27T15:32:13.687Z,3148
2017-06-27T15:34:38.920Z,3292
2017-06-27T15:37:04.230Z,3312
2017-06-27T15:39:21.036Z,3204
2017-06-27T15:41:37.854Z,3084
2017-06-27T15:44:03.170Z,2924
2017-06-27T15:46:20.001Z,2840
2017-06-27T15:50:38.980Z,2748
2017-06-27T15:53:04.266Z,2908
2017-06-27T15:55:29.584Z,2928
2017-06-27T15:57:46.393Z,2888
2017-06-27T16:00:11.702Z,2580
2017-06-27T16:02:28.510Z,2600
2017-06-27T16:04:53.715Z,2308
2017-06-27T16:07:18.927Z,2256
2017-06-27T16:09:44.143Z,1944
2017-06-27T16:12:09.344Z,1816
2017-06-27T16:14:34.569Z,1784
2017-06-27T16:16:59.770Z,1732
2017-06-27T16:19:24.953Z,1776
2017-06-27T16:21:50.165Z,1776
2017-06-27T16:24:15.370Z,1784
2017-06-27T16:26:40.578Z,1788
2017-06-27T16:28:57.279Z,1800
2017-06-27T16:31:22.487Z,1828
2017-06-27T16:33:47.596Z,1792
2017-06-27T16:36:12.795Z,1700
2017-06-27T16:38:37.909Z,1704
2017-06-27T16:41:02.995Z,1728
2017-06-27T16:43:28.099Z,1728
2017-06-27T16:45:44.615Z,1704
2017-06-27T16:50:11.410Z,1600
2017-06-27T16:52:28.030Z,1520
2017-06-27T16:54:45.326Z,1456
2017-06-27T16:57:10.286Z,1420
2017-06-27T16:59:35.300Z,1420
2017-06-27T17:02:00.298Z,1392
2017-06-27T17:04:16.821Z,1332
2017-06-27T17:06:41.814Z,1280
2017-06-27T17:09:06.809Z,1220
2017-06-27T17:11:39.209Z,1168
2017-06-27T17:13:55.691Z,1092
2017-06-27T17:16:06.373Z,1032
2017-06-27T17:18:32.382Z,972
2017-06-27T17:20:57.388Z,880
2017-06-27T17:23:22.388Z,804
2017-06-27T17:27:23.686Z,844
2017-06-27T17:29:48.637Z,928
2017-06-27T17:32:13.529Z,1040
2017-06-27T17:34:38.423Z,1104
2017-06-27T17:36:53.041Z,1136
2017-06-27T17:39:18.007Z,1172
2017-06-27T17:41:42.898Z,1184
2017-06-27T17:44:07.818Z,1192
2017-06-27T17:46:32.806Z,1232
2017-06-27T17:48:49.241Z,1220
2017-06-27T17:51:14.227Z,1156
2017-06-27T17:53:30.637Z,1112
2017-06-27T17:57:57.653Z,1160
2017-06-27T18:00:29.607Z,1156
2017-06-27T18:02:54.551Z,1192
2017-06-27T18:05:10.891Z,1180
2017-06-27T18:07:27.258Z,1152
2017-06-27T18:09:43.591Z,1116
2017-06-27T18:12:08.447Z,1064
2017-06-27T18:14:33.298Z,1000
2017-06-27T18:18:25.640Z,940
2017-06-27T18:20:50.460Z,900
2017-06-27T18:23:15.301Z,876
2017-06-27T18:25:40.196Z,876
2017-06-27T18:27:50.860Z,892
2017-06-27T18:30:15.768Z,884
2017-06-27T18:32:40.536Z,848
2017-06-27T18:35:05.377Z,792
2017-06-27T18:37:30.152Z,736
2017-06-27T18:39:54.843Z,692
2017-06-27T18:42:02.682Z,644
2017-06-27T18:44:27.549Z,580
2017-06-27T18:48:28.542Z,472
2017-06-27T18:50:54.429Z,428
2017-06-27T18:53:19.290Z,392
2017-06-27T18:57:20.572Z,332
2017-06-27T18:59:45.628Z,304
2017-06-27T19:02:10.685Z,272
2017-06-27T19:04:27.355Z,240
2017-06-27T19:08:40.396Z,164
2017-06-27T19:10:56.898Z,140
2017-06-27T19:15:10.030Z,100
2017-06-27T19:19:11.572Z,68
2017-06-27T19:21:36.545Z,52
2017-06-27T19:24:01.557Z,44
2017-06-27T19:26:26.599Z,36
2017-06-27T19:28:54.591Z,28
2017-06-27T19:33:23.183Z,24
2017-06-27T19:35:48.280Z,16
2017-06-27T19:39:49.558Z,12
2017-06-27T19:42:14.718Z,8
2017-06-27T19:44:41.704Z,8
2017-06-27T19:47:15.749Z,4
2017-06-27T19:49:48.677Z,0
2017-06-27T19:52:13.438Z,4
2017-06-27T19:54:29.967Z,0
2017-06-27T19:56:54.963Z,0
2017-06-27T19:59:20.168Z,0
2017-06-27T20:01:46.587Z,0
2017-06-27T20:04:11.898Z,0
2017-06-27T20:06:37.192Z,0
2017-06-27T20:09:02.626Z,0
2017-06-27T20:11:30.548Z,0
2017-06-27T20:13:55.663Z,0
2017-06-27T20:16:21.868Z,0
2017-06-27T20:18:45.979Z,0
2017-06-27T20:22:47.283Z,0
2017-06-27T20:25:03.790Z,0
2017-06-27T20:27:29.274Z,0
2017-06-27T20:29:46.880Z,0
2017-06-27T20:33:49.871Z,0
2017-06-27T20:36:00.219Z,0
2017-06-27T20:38:25.205Z,0
2017-06-27T20:40:50.123Z,0
2017-06-27T20:43:14.975Z,0
2017-06-27T20:45:39.875Z,0
2017-06-27T20:48:04.548Z,0
2017-06-27T20:50:20.832Z,0
2017-06-27T20:52:37.007Z,0
2017-06-27T20:55:01.584Z,0
2017-06-27T20:57:26.161Z,0
2017-06-27T20:59:50.682Z,0
2017-06-27T21:02:15.260Z,0
2017-06-27T21:04:39.866Z,0
2017-06-27T21:07:04.455Z,0
2017-06-27T21:09:29.043Z,0
2017-06-27T21:11:53.973Z,0
2017-06-27T21:15:54.773Z,0
2017-06-27T21:19:55.537Z,0
2017-06-27T21:23:47.848Z,0
2017-06-27T21:27:48.604Z,0
2017-06-27T21:31:49.435Z,0
2017-06-27T21:35:50.228Z,0
2017-06-27T21:39:50.999Z,0
2017-06-27T21:45:19.562Z,0
2017-06-27T21:49:20.316Z,0
2017-06-27T21:53:20.997Z,0
2017-06-27T21:57:21.738Z,0
2017-06-27T22:01:22.436Z,0
2017-06-27T22:05:23.169Z,0
2017-06-27T22:09:23.847Z,0
2017-06-27T22:13:24.538Z,0
2017-06-27T22:17:25.232Z,0
2017-06-27T22:21:25.949Z,0
2017-06-27T22:25:26.665Z,0
2017-06-27T22:29:27.332Z,0
2017-06-27T22:33:27.977Z,0
2017-06-27T22:37:20.218Z,0
2017-06-27T22:41:20.840Z,0
2017-06-27T22:44:01.171Z,0
2017-06-27T22:48:01.835Z,0
2017-06-27T22:52:02.507Z,0
2017-06-27T22:54:13.056Z,0
2017-06-27T22:58:48.391Z,0
2017-06-27T23:02:49.107Z,0
2017-06-27T23:06:49.743Z,0
2017-06-27T23:10:50.413Z,0
2017-06-27T23:14:50.527Z,0
2017-06-27T23:18:51.187Z,0
2017-06-27T23:22:51.824Z,0
2017-06-27T23:28:55.206Z,0
2017-06-27T23:32:55.878Z,0
2017-06-27T23:38:24.260Z,0
2017-06-27T23:42:24.828Z,0
2017-06-27T23:46:25.469Z,0
2017-06-27T23:50:26.000Z,0
2017-06-27T23:54:26.605Z,0
2017-06-27T23:58:27.168Z,0
